sensor_id;sensor_type;location;lat;lon;timestamp;pressure;altitude;pressure_sealevel;temperature
38114;BMP180;23926;53.222;6.354;2022-09-27T00:00:35;99269.00;;;13.20
38114;BMP180;23926;53.222;6.354;2022-09-27T00:03:01;99277.00;;;13.20
38114;BMP180;23926;53.222;6.354;2022-09-27T00:05:27;99273.00;;;13.30
38114;BMP180;23926;53.222;6.354;2022-09-27T00:07:52;99276.00;;;13.30
38114;BMP180;23926;53.222;6.354;2022-09-27T00:10:18;99281.00;;;13.40
38114;BMP180;23926;53.222;6.354;2022-09-27T00:12:44;99258.00;;;13.30
38114;BMP180;23926;53.222;6.354;2022-09-27T00:15:10;99259.00;;;13.20
38114;BMP180;23926;53.222;6.354;2022-09-27T00:17:37;99270.00;;;13.10
38114;BMP180;23926;53.222;6.354;2022-09-27T00:20:05;99276.00;;;12.90
38114;BMP180;23926;53.222;6.354;2022-09-27T00:22:30;99263.00;;;12.80
38114;BMP180;23926;53.222;6.354;2022-09-27T00:24:56;99267.00;;;12.80
38114;BMP180;23926;53.222;6.354;2022-09-27T00:27:23;99269.00;;;12.80
38114;BMP180;23926;53.222;6.354;2022-09-27T00:29:49;99274.00;;;12.80
38114;BMP180;23926;53.222;6.354;2022-09-27T00:32:14;99269.00;;;12.80
38114;BMP180;23926;53.222;6.354;2022-09-27T00:34:39;99287.00;;;13.00
38114;BMP180;23926;53.222;6.354;2022-09-27T00:37:06;99288.00;;;12.90
38114;BMP180;23926;53.222;6.354;2022-09-27T00:39:32;99274.00;;;12.80
38114;BMP180;23926;53.222;6.354;2022-09-27T00:41:57;99283.00;;;12.90
38114;BMP180;23926;53.222;6.354;2022-09-27T00:49:44;99282.00;;;12.80
38114;BMP180;23926;53.222;6.354;2022-09-27T00:54:57;99291.00;;;12.90
38114;BMP180;23926;53.222;6.354;2022-09-27T00:57:24;99280.00;;;12.90
38114;BMP180;23926;53.222;6.354;2022-09-27T00:59:56;99269.00;;;12.80
38114;BMP180;23926;53.222;6.354;2022-09-27T01:02:23;99283.00;;;12.70
38114;BMP180;23926;53.222;6.354;2022-09-27T01:04:48;99268.00;;;12.80
38114;BMP180;23926;53.222;6.354;2022-09-27T01:07:14;99282.00;;;12.70
38114;BMP180;23926;53.222;6.354;2022-09-27T01:09:40;99282.00;;;12.70
38114;BMP180;23926;53.222;6.354;2022-09-27T01:17:59;99283.00;;;12.70
38114;BMP180;23926;53.222;6.354;2022-09-27T01:29:16;99288.00;;;12.70
38114;BMP180;23926;53.222;6.354;2022-09-27T01:32:18;99304.00;;;12.80
38114;BMP180;23926;53.222;6.354;2022-09-27T01:34:46;99311.00;;;12.50
38114;BMP180;23926;53.222;6.354;2022-09-27T01:37:37;99319.00;;;12.30
38114;BMP180;23926;53.222;6.354;2022-09-27T01:40:14;99313.00;;;12.30
38114;BMP180;23926;53.222;6.354;2022-09-27T01:42:56;99318.00;;;12.20
38114;BMP180;23926;53.222;6.354;2022-09-27T01:47:58;99299.00;;;11.90
38114;BMP180;23926;53.222;6.354;2022-09-27T01:53:04;99313.00;;;12.10
38114;BMP180;23926;53.222;6.354;2022-09-27T01:55:34;99314.00;;;12.30
38114;BMP180;23926;53.222;6.354;2022-09-27T01:58:18;99304.00;;;12.10
38114;BMP180;23926;53.222;6.354;2022-09-27T02:00:48;99310.00;;;12.10
38114;BMP180;23926;53.222;6.354;2022-09-27T02:03:23;99298.00;;;12.10
38114;BMP180;23926;53.222;6.354;2022-09-27T02:05:56;99306.00;;;12.10
38114;BMP180;23926;53.222;6.354;2022-09-27T02:11:00;99312.00;;;12.10
38114;BMP180;23926;53.222;6.354;2022-09-27T02:13:43;99300.00;;;12.00
38114;BMP180;23926;53.222;6.354;2022-09-27T02:16:16;99306.00;;;12.10
38114;BMP180;23926;53.222;6.354;2022-09-27T02:19:00;99290.00;;;12.10
38114;BMP180;23926;53.222;6.354;2022-09-27T02:21:40;99312.00;;;12.10
38114;BMP180;23926;53.222;6.354;2022-09-27T02:24:09;99308.00;;;12.10
38114;BMP180;23926;53.222;6.354;2022-09-27T02:26:43;99307.00;;;12.10
38114;BMP180;23926;53.222;6.354;2022-09-27T02:29:13;99310.00;;;12.30
38114;BMP180;23926;53.222;6.354;2022-09-27T02:31:40;99309.00;;;12.40
38114;BMP180;23926;53.222;6.354;2022-09-27T02:34:11;99308.00;;;12.40
38114;BMP180;23926;53.222;6.354;2022-09-27T02:36:38;99304.00;;;12.30
38114;BMP180;23926;53.222;6.354;2022-09-27T02:39:04;99309.00;;;12.40
38114;BMP180;23926;53.222;6.354;2022-09-27T02:41:30;99316.00;;;12.60
38114;BMP180;23926;53.222;6.354;2022-09-27T02:44:00;99311.00;;;12.50
38114;BMP180;23926;53.222;6.354;2022-09-27T02:50:02;99305.00;;;12.10
38114;BMP180;23926;53.222;6.354;2022-09-27T02:55:18;99307.00;;;12.10
38114;BMP180;23926;53.222;6.354;2022-09-27T03:00:46;99293.00;;;11.90
38114;BMP180;23926;53.222;6.354;2022-09-27T03:03:16;99300.00;;;11.80
38114;BMP180;23926;53.222;6.354;2022-09-27T03:05:49;99293.00;;;11.80
38114;BMP180;23926;53.222;6.354;2022-09-27T03:08:17;99313.00;;;11.70
38114;BMP180;23926;53.222;6.354;2022-09-27T03:10:42;99326.00;;;11.90
38114;BMP180;23926;53.222;6.354;2022-09-27T03:13:08;99325.00;;;11.80
38114;BMP180;23926;53.222;6.354;2022-09-27T03:15:34;99336.00;;;11.70
38114;BMP180;23926;53.222;6.354;2022-09-27T03:17:59;99326.00;;;11.50
38114;BMP180;23926;53.222;6.354;2022-09-27T03:20:25;99316.00;;;11.70
38114;BMP180;23926;53.222;6.354;2022-09-27T03:22:50;99321.00;;;11.60
38114;BMP180;23926;53.222;6.354;2022-09-27T03:25:16;99305.00;;;11.60
38114;BMP180;23926;53.222;6.354;2022-09-27T03:27:42;99304.00;;;11.60
38114;BMP180;23926;53.222;6.354;2022-09-27T03:30:09;99283.00;;;11.70
38114;BMP180;23926;53.222;6.354;2022-09-27T03:32:35;99281.00;;;11.70
38114;BMP180;23926;53.222;6.354;2022-09-27T03:35:00;99275.00;;;11.90
38114;BMP180;23926;53.222;6.354;2022-09-27T03:37:25;99274.00;;;11.80
38114;BMP180;23926;53.222;6.354;2022-09-27T03:39:53;99283.00;;;11.80
38114;BMP180;23926;53.222;6.354;2022-09-27T03:42:19;99278.00;;;11.80
38114;BMP180;23926;53.222;6.354;2022-09-27T03:44:44;99279.00;;;11.90
38114;BMP180;23926;53.222;6.354;2022-09-27T03:47:09;99293.00;;;12.00
38114;BMP180;23926;53.222;6.354;2022-09-27T03:49:35;99289.00;;;12.00
38114;BMP180;23926;53.222;6.354;2022-09-27T03:52:00;99295.00;;;11.90
38114;BMP180;23926;53.222;6.354;2022-09-27T03:54:26;99295.00;;;11.90
38114;BMP180;23926;53.222;6.354;2022-09-27T03:56:51;99306.00;;;12.00
38114;BMP180;23926;53.222;6.354;2022-09-27T03:59:16;99294.00;;;12.00
38114;BMP180;23926;53.222;6.354;2022-09-27T04:01:42;99297.00;;;12.00
38114;BMP180;23926;53.222;6.354;2022-09-27T04:04:09;99299.00;;;11.90
38114;BMP180;23926;53.222;6.354;2022-09-27T04:06:35;99304.00;;;11.80
38114;BMP180;23926;53.222;6.354;2022-09-27T04:09:01;99286.00;;;11.70
38114;BMP180;23926;53.222;6.354;2022-09-27T04:11:26;99289.00;;;11.90
38114;BMP180;23926;53.222;6.354;2022-09-27T04:13:52;99278.00;;;11.70
38114;BMP180;23926;53.222;6.354;2022-09-27T04:16:17;99273.00;;;11.70
38114;BMP180;23926;53.222;6.354;2022-09-27T04:18:43;99293.00;;;11.70
38114;BMP180;23926;53.222;6.354;2022-09-27T04:21:08;99290.00;;;11.70
38114;BMP180;23926;53.222;6.354;2022-09-27T04:23:34;99289.00;;;11.70
38114;BMP180;23926;53.222;6.354;2022-09-27T04:26:00;99289.00;;;11.80
38114;BMP180;23926;53.222;6.354;2022-09-27T04:28:26;99278.00;;;11.80
38114;BMP180;23926;53.222;6.354;2022-09-27T04:30:53;99268.00;;;11.70
38114;BMP180;23926;53.222;6.354;2022-09-27T04:33:19;99274.00;;;11.60
38114;BMP180;23926;53.222;6.354;2022-09-27T04:35:44;99270.00;;;11.80
38114;BMP180;23926;53.222;6.354;2022-09-27T04:38:39;99275.00;;;11.70
38114;BMP180;23926;53.222;6.354;2022-09-27T04:41:04;99289.00;;;11.70
38114;BMP180;23926;53.222;6.354;2022-09-27T04:43:31;99275.00;;;11.80
38114;BMP180;23926;53.222;6.354;2022-09-27T04:45:56;99290.00;;;11.80
38114;BMP180;23926;53.222;6.354;2022-09-27T04:48:22;99289.00;;;11.70
38114;BMP180;23926;53.222;6.354;2022-09-27T04:50:55;99294.00;;;11.50
38114;BMP180;23926;53.222;6.354;2022-09-27T04:53:20;99281.00;;;11.40
38114;BMP180;23926;53.222;6.354;2022-09-27T04:55:46;99294.00;;;11.40
38114;BMP180;23926;53.222;6.354;2022-09-27T04:58:12;99283.00;;;11.40
38114;BMP180;23926;53.222;6.354;2022-09-27T05:00:39;99291.00;;;11.40
38114;BMP180;23926;53.222;6.354;2022-09-27T05:03:04;99317.00;;;11.50
38114;BMP180;23926;53.222;6.354;2022-09-27T05:05:29;99293.00;;;11.50
38114;BMP180;23926;53.222;6.354;2022-09-27T05:07:55;99316.00;;;11.50
38114;BMP180;23926;53.222;6.354;2022-09-27T05:10:20;99315.00;;;11.60
38114;BMP180;23926;53.222;6.354;2022-09-27T05:12:45;99320.00;;;11.40
38114;BMP180;23926;53.222;6.354;2022-09-27T05:15:11;99313.00;;;11.60
38114;BMP180;23926;53.222;6.354;2022-09-27T05:17:36;99308.00;;;11.60
38114;BMP180;23926;53.222;6.354;2022-09-27T05:20:02;99310.00;;;11.60
38114;BMP180;23926;53.222;6.354;2022-09-27T05:22:28;99317.00;;;11.60
38114;BMP180;23926;53.222;6.354;2022-09-27T05:24:53;99312.00;;;11.60
38114;BMP180;23926;53.222;6.354;2022-09-27T05:27:19;99300.00;;;11.50
38114;BMP180;23926;53.222;6.354;2022-09-27T05:29:45;99289.00;;;11.70
38114;BMP180;23926;53.222;6.354;2022-09-27T05:32:11;99305.00;;;11.70
38114;BMP180;23926;53.222;6.354;2022-09-27T05:34:36;99305.00;;;11.80
38114;BMP180;23926;53.222;6.354;2022-09-27T05:37:02;99310.00;;;11.90
38114;BMP180;23926;53.222;6.354;2022-09-27T05:39:27;99299.00;;;11.90
38114;BMP180;23926;53.222;6.354;2022-09-27T05:41:53;99319.00;;;12.00
38114;BMP180;23926;53.222;6.354;2022-09-27T05:44:20;99320.00;;;12.00
38114;BMP180;23926;53.222;6.354;2022-09-27T05:46:45;99322.00;;;12.00
38114;BMP180;23926;53.222;6.354;2022-09-27T05:49:11;99320.00;;;12.10
38114;BMP180;23926;53.222;6.354;2022-09-27T05:51:36;99327.00;;;12.00
38114;BMP180;23926;53.222;6.354;2022-09-27T05:54:02;99311.00;;;12.00
38114;BMP180;23926;53.222;6.354;2022-09-27T05:56:27;99328.00;;;12.10
38114;BMP180;23926;53.222;6.354;2022-09-27T05:58:53;99331.00;;;12.10
38114;BMP180;23926;53.222;6.354;2022-09-27T06:01:18;99326.00;;;12.10
38114;BMP180;23926;53.222;6.354;2022-09-27T06:03:44;99321.00;;;12.10
38114;BMP180;23926;53.222;6.354;2022-09-27T06:06:11;99321.00;;;12.10
38114;BMP180;23926;53.222;6.354;2022-09-27T06:08:38;99322.00;;;12.10
38114;BMP180;23926;53.222;6.354;2022-09-27T06:11:09;99326.00;;;12.00
38114;BMP180;23926;53.222;6.354;2022-09-27T06:13:37;99323.00;;;12.00
38114;BMP180;23926;53.222;6.354;2022-09-27T06:16:04;99317.00;;;12.10
38114;BMP180;23926;53.222;6.354;2022-09-27T06:18:30;99316.00;;;12.10
38114;BMP180;23926;53.222;6.354;2022-09-27T06:20:58;99320.00;;;12.30
38114;BMP180;23926;53.222;6.354;2022-09-27T06:23:23;99312.00;;;12.20
38114;BMP180;23926;53.222;6.354;2022-09-27T06:25:50;99325.00;;;12.20
38114;BMP180;23926;53.222;6.354;2022-09-27T06:28:16;99323.00;;;12.20
38114;BMP180;23926;53.222;6.354;2022-09-27T06:30:44;99328.00;;;12.10
38114;BMP180;23926;53.222;6.354;2022-09-27T06:33:15;99326.00;;;12.20
38114;BMP180;23926;53.222;6.354;2022-09-27T06:35:41;99333.00;;;12.20
38114;BMP180;23926;53.222;6.354;2022-09-27T06:38:11;99339.00;;;12.20
38114;BMP180;23926;53.222;6.354;2022-09-27T06:40:36;99337.00;;;12.30
38114;BMP180;23926;53.222;6.354;2022-09-27T06:43:03;99343.00;;;12.20
38114;BMP180;23926;53.222;6.354;2022-09-27T06:45:29;99341.00;;;12.40
38114;BMP180;23926;53.222;6.354;2022-09-27T06:47:56;99347.00;;;12.30
38114;BMP180;23926;53.222;6.354;2022-09-27T06:50:21;99353.00;;;12.30
38114;BMP180;23926;53.222;6.354;2022-09-27T06:52:47;99353.00;;;12.40
38114;BMP180;23926;53.222;6.354;2022-09-27T06:55:13;99360.00;;;12.50
38114;BMP180;23926;53.222;6.354;2022-09-27T06:57:39;99351.00;;;12.50
38114;BMP180;23926;53.222;6.354;2022-09-27T07:00:23;99360.00;;;12.40
38114;BMP180;23926;53.222;6.354;2022-09-27T07:02:49;99371.00;;;12.60
38114;BMP180;23926;53.222;6.354;2022-09-27T07:05:15;99364.00;;;12.60
38114;BMP180;23926;53.222;6.354;2022-09-27T07:07:41;99369.00;;;12.60
38114;BMP180;23926;53.222;6.354;2022-09-27T07:10:09;99363.00;;;12.70
38114;BMP180;23926;53.222;6.354;2022-09-27T07:12:35;99368.00;;;12.80
38114;BMP180;23926;53.222;6.354;2022-09-27T07:15:01;99371.00;;;12.80
38114;BMP180;23926;53.222;6.354;2022-09-27T07:17:26;99382.00;;;12.70
38114;BMP180;23926;53.222;6.354;2022-09-27T07:19:52;99376.00;;;12.60
38114;BMP180;23926;53.222;6.354;2022-09-27T07:22:18;99375.00;;;12.40
38114;BMP180;23926;53.222;6.354;2022-09-27T07:24:44;99382.00;;;12.50
38114;BMP180;23926;53.222;6.354;2022-09-27T07:27:09;99383.00;;;12.50
38114;BMP180;23926;53.222;6.354;2022-09-27T07:29:34;99386.00;;;12.50
38114;BMP180;23926;53.222;6.354;2022-09-27T07:32:00;99383.00;;;12.40
38114;BMP180;23926;53.222;6.354;2022-09-27T07:34:26;99385.00;;;12.40
38114;BMP180;23926;53.222;6.354;2022-09-27T07:36:52;99390.00;;;12.40
38114;BMP180;23926;53.222;6.354;2022-09-27T07:39:19;99380.00;;;12.40
38114;BMP180;23926;53.222;6.354;2022-09-27T07:41:46;99398.00;;;12.40
38114;BMP180;23926;53.222;6.354;2022-09-27T07:44:12;99393.00;;;12.50
38114;BMP180;23926;53.222;6.354;2022-09-27T07:46:40;99401.00;;;12.50
38114;BMP180;23926;53.222;6.354;2022-09-27T07:49:05;99394.00;;;12.40
38114;BMP180;23926;53.222;6.354;2022-09-27T07:51:31;99389.00;;;12.50
38114;BMP180;23926;53.222;6.354;2022-09-27T07:53:56;99393.00;;;12.60
38114;BMP180;23926;53.222;6.354;2022-09-27T07:56:21;99382.00;;;12.70
38114;BMP180;23926;53.222;6.354;2022-09-27T07:58:47;99381.00;;;12.90
38114;BMP180;23926;53.222;6.354;2022-09-27T08:01:12;99388.00;;;13.20
38114;BMP180;23926;53.222;6.354;2022-09-27T08:03:38;99389.00;;;13.40
38114;BMP180;23926;53.222;6.354;2022-09-27T08:06:04;99389.00;;;13.60
38114;BMP180;23926;53.222;6.354;2022-09-27T08:08:30;99385.00;;;13.70
38114;BMP180;23926;53.222;6.354;2022-09-27T08:10:56;99385.00;;;13.90
38114;BMP180;23926;53.222;6.354;2022-09-27T08:13:22;99393.00;;;14.10
38114;BMP180;23926;53.222;6.354;2022-09-27T08:15:48;99407.00;;;14.10
38114;BMP180;23926;53.222;6.354;2022-09-27T08:18:16;99417.00;;;14.00
38114;BMP180;23926;53.222;6.354;2022-09-27T08:20:42;99408.00;;;13.90
38114;BMP180;23926;53.222;6.354;2022-09-27T08:23:07;99404.00;;;13.80
38114;BMP180;23926;53.222;6.354;2022-09-27T08:25:33;99404.00;;;13.80
38114;BMP180;23926;53.222;6.354;2022-09-27T08:28:00;99402.00;;;13.80
38114;BMP180;23926;53.222;6.354;2022-09-27T08:30:27;99413.00;;;13.80
38114;BMP180;23926;53.222;6.354;2022-09-27T08:32:56;99408.00;;;13.70
38114;BMP180;23926;53.222;6.354;2022-09-27T08:35:22;99408.00;;;13.70
38114;BMP180;23926;53.222;6.354;2022-09-27T08:37:55;99412.00;;;13.70
38114;BMP180;23926;53.222;6.354;2022-09-27T08:40:23;99404.00;;;13.90
38114;BMP180;23926;53.222;6.354;2022-09-27T08:43:07;99414.00;;;13.90
38114;BMP180;23926;53.222;6.354;2022-09-27T08:48:31;99408.00;;;14.20
38114;BMP180;23926;53.222;6.354;2022-09-27T08:51:00;99412.00;;;14.20
38114;BMP180;23926;53.222;6.354;2022-09-27T08:53:32;99417.00;;;14.40
38114;BMP180;23926;53.222;6.354;2022-09-27T08:56:02;99414.00;;;14.60
38114;BMP180;23926;53.222;6.354;2022-09-27T08:58:51;99420.00;;;14.70
38114;BMP180;23926;53.222;6.354;2022-09-27T09:01:18;99413.00;;;14.80
38114;BMP180;23926;53.222;6.354;2022-09-27T09:03:53;99406.00;;;14.90
38114;BMP180;23926;53.222;6.354;2022-09-27T09:06:23;99428.00;;;14.90
38114;BMP180;23926;53.222;6.354;2022-09-27T09:15:21;99454.00;;;14.20
38114;BMP180;23926;53.222;6.354;2022-09-27T09:23:24;99456.00;;;13.00
38114;BMP180;23926;53.222;6.354;2022-09-27T09:26:29;99450.00;;;13.00
38114;BMP180;23926;53.222;6.354;2022-09-27T09:36:49;99442.00;;;13.30
38114;BMP180;23926;53.222;6.354;2022-09-27T09:39:21;99431.00;;;13.30
38114;BMP180;23926;53.222;6.354;2022-09-27T09:42:13;99435.00;;;13.40
38114;BMP180;23926;53.222;6.354;2022-09-27T09:44:47;99447.00;;;13.50
38114;BMP180;23926;53.222;6.354;2022-09-27T09:50:25;99445.00;;;13.80
38114;BMP180;23926;53.222;6.354;2022-09-27T09:55:40;99444.00;;;14.20
38114;BMP180;23926;53.222;6.354;2022-09-27T09:58:42;99444.00;;;14.30
38114;BMP180;23926;53.222;6.354;2022-09-27T10:01:19;99454.00;;;14.50
38114;BMP180;23926;53.222;6.354;2022-09-27T10:03:46;99448.00;;;14.50
38114;BMP180;23926;53.222;6.354;2022-09-27T10:06:13;99448.00;;;14.50
38114;BMP180;23926;53.222;6.354;2022-09-27T10:08:40;99456.00;;;14.60
38114;BMP180;23926;53.222;6.354;2022-09-27T10:11:07;99465.00;;;14.70
38114;BMP180;23926;53.222;6.354;2022-09-27T10:13:37;99461.00;;;14.70
38114;BMP180;23926;53.222;6.354;2022-09-27T10:16:06;99461.00;;;14.90
38114;BMP180;23926;53.222;6.354;2022-09-27T10:18:36;99451.00;;;14.60
38114;BMP180;23926;53.222;6.354;2022-09-27T10:21:06;99473.00;;;14.40
38114;BMP180;23926;53.222;6.354;2022-09-27T10:23:32;99471.00;;;14.00
38114;BMP180;23926;53.222;6.354;2022-09-27T10:25:59;99459.00;;;13.50
38114;BMP180;23926;53.222;6.354;2022-09-27T10:28:35;99479.00;;;13.30
38114;BMP180;23926;53.222;6.354;2022-09-27T10:31:14;99468.00;;;12.70
38114;BMP180;23926;53.222;6.354;2022-09-27T10:36:40;99467.00;;;12.20
38114;BMP180;23926;53.222;6.354;2022-09-27T10:39:05;99466.00;;;12.20
38114;BMP180;23926;53.222;6.354;2022-09-27T10:41:40;99464.00;;;12.10
38114;BMP180;23926;53.222;6.354;2022-09-27T10:46:42;99448.00;;;12.00
38114;BMP180;23926;53.222;6.354;2022-09-27T10:51:39;99460.00;;;12.40
38114;BMP180;23926;53.222;6.354;2022-09-27T10:54:17;99461.00;;;12.50
38114;BMP180;23926;53.222;6.354;2022-09-27T10:56:43;99459.00;;;12.70
38114;BMP180;23926;53.222;6.354;2022-09-27T10:59:16;99454.00;;;12.90
38114;BMP180;23926;53.222;6.354;2022-09-27T11:01:44;99453.00;;;13.00
38114;BMP180;23926;53.222;6.354;2022-09-27T11:04:28;99449.00;;;13.20
38114;BMP180;23926;53.222;6.354;2022-09-27T11:07:20;99447.00;;;13.40
38114;BMP180;23926;53.222;6.354;2022-09-27T11:09:57;99452.00;;;13.50
38114;BMP180;23926;53.222;6.354;2022-09-27T11:12:28;99450.00;;;13.70
38114;BMP180;23926;53.222;6.354;2022-09-27T11:15:01;99452.00;;;14.00
38114;BMP180;23926;53.222;6.354;2022-09-27T11:17:36;99446.00;;;14.00
38114;BMP180;23926;53.222;6.354;2022-09-27T11:20:10;99451.00;;;14.10
38114;BMP180;23926;53.222;6.354;2022-09-27T11:25:30;99464.00;;;14.40
38114;BMP180;23926;53.222;6.354;2022-09-27T11:31:10;99456.00;;;14.40
38114;BMP180;23926;53.222;6.354;2022-09-27T11:34:04;99452.00;;;14.40
38114;BMP180;23926;53.222;6.354;2022-09-27T11:40:00;99456.00;;;14.50
38114;BMP180;23926;53.222;6.354;2022-09-27T11:55:43;99438.00;;;14.20
38114;BMP180;23926;53.222;6.354;2022-09-27T11:58:24;99451.00;;;14.30
38114;BMP180;23926;53.222;6.354;2022-09-27T12:06:14;99443.00;;;14.30
38114;BMP180;23926;53.222;6.354;2022-09-27T12:11:23;99431.00;;;14.30
38114;BMP180;23926;53.222;6.354;2022-09-27T12:13:56;99432.00;;;14.20
38114;BMP180;23926;53.222;6.354;2022-09-27T12:16:25;99435.00;;;14.40
38114;BMP180;23926;53.222;6.354;2022-09-27T12:18:52;99444.00;;;14.50
38114;BMP180;23926;53.222;6.354;2022-09-27T12:21:19;99432.00;;;14.70
38114;BMP180;23926;53.222;6.354;2022-09-27T12:23:49;99441.00;;;14.80
38114;BMP180;23926;53.222;6.354;2022-09-27T12:28:57;99447.00;;;15.00
38114;BMP180;23926;53.222;6.354;2022-09-27T12:31:34;99455.00;;;14.90
38114;BMP180;23926;53.222;6.354;2022-09-27T12:36:50;99446.00;;;14.60
38114;BMP180;23926;53.222;6.354;2022-09-27T12:41:53;99455.00;;;14.50
38114;BMP180;23926;53.222;6.354;2022-09-27T12:44:26;99458.00;;;14.30
38114;BMP180;23926;53.222;6.354;2022-09-27T12:49:55;99466.00;;;13.90
38114;BMP180;23926;53.222;6.354;2022-09-27T12:52:30;99457.00;;;14.00
38114;BMP180;23926;53.222;6.354;2022-09-27T13:00:19;99465.00;;;14.40
38114;BMP180;23926;53.222;6.354;2022-09-27T13:05:43;99470.00;;;13.70
38114;BMP180;23926;53.222;6.354;2022-09-27T13:09:14;99474.00;;;13.40
38114;BMP180;23926;53.222;6.354;2022-09-27T13:11:18;99470.00;;;13.10
38114;BMP180;23926;53.222;6.354;2022-09-27T13:13:48;99469.00;;;13.00
38114;BMP180;23926;53.222;6.354;2022-09-27T13:16:14;99466.00;;;12.90
38114;BMP180;23926;53.222;6.354;2022-09-27T13:18:58;99469.00;;;12.80
38114;BMP180;23926;53.222;6.354;2022-09-27T13:32:32;99458.00;;;13.00
38114;BMP180;23926;53.222;6.354;2022-09-27T13:37:56;99463.00;;;13.80
38114;BMP180;23926;53.222;6.354;2022-09-27T13:40:27;99481.00;;;14.00
38114;BMP180;23926;53.222;6.354;2022-09-27T13:45:34;99481.00;;;14.50
38114;BMP180;23926;53.222;6.354;2022-09-27T13:48:10;99470.00;;;14.60
38114;BMP180;23926;53.222;6.354;2022-09-27T13:53:27;99490.00;;;14.10
38114;BMP180;23926;53.222;6.354;2022-09-27T13:55:54;99492.00;;;13.70
38114;BMP180;23926;53.222;6.354;2022-09-27T14:01:40;99489.00;;;12.90
38114;BMP180;23926;53.222;6.354;2022-09-27T14:04:16;99482.00;;;12.70
38114;BMP180;23926;53.222;6.354;2022-09-27T14:06:47;99489.00;;;12.60
38114;BMP180;23926;53.222;6.354;2022-09-27T14:09:26;99485.00;;;12.60
38114;BMP180;23926;53.222;6.354;2022-09-27T14:11:58;99474.00;;;12.50
38114;BMP180;23926;53.222;6.354;2022-09-27T14:14:26;99474.00;;;12.70
38114;BMP180;23926;53.222;6.354;2022-09-27T14:16:53;99457.00;;;12.60
38114;BMP180;23926;53.222;6.354;2022-09-27T14:19:21;99461.00;;;12.80
38114;BMP180;23926;53.222;6.354;2022-09-27T14:21:47;99466.00;;;12.90
38114;BMP180;23926;53.222;6.354;2022-09-27T14:24:42;99469.00;;;13.20
38114;BMP180;23926;53.222;6.354;2022-09-27T14:29:56;99462.00;;;13.60
38114;BMP180;23926;53.222;6.354;2022-09-27T14:32:26;99463.00;;;13.90
38114;BMP180;23926;53.222;6.354;2022-09-27T14:37:27;99465.00;;;14.00
38114;BMP180;23926;53.222;6.354;2022-09-27T14:40:18;99464.00;;;13.90
38114;BMP180;23926;53.222;6.354;2022-09-27T14:42:44;99468.00;;;13.90
38114;BMP180;23926;53.222;6.354;2022-09-27T14:45:26;99445.00;;;13.90
38114;BMP180;23926;53.222;6.354;2022-09-27T14:47:54;99461.00;;;13.90
38114;BMP180;23926;53.222;6.354;2022-09-27T14:50:23;99463.00;;;13.80
38114;BMP180;23926;53.222;6.354;2022-09-27T14:52:49;99466.00;;;13.70
38114;BMP180;23926;53.222;6.354;2022-09-27T14:55:21;99470.00;;;13.70
38114;BMP180;23926;53.222;6.354;2022-09-27T14:57:52;99477.00;;;13.60
38114;BMP180;23926;53.222;6.354;2022-09-27T15:00:30;99458.00;;;13.70
38114;BMP180;23926;53.222;6.354;2022-09-27T15:02:59;99479.00;;;13.80
38114;BMP180;23926;53.222;6.354;2022-09-27T15:05:29;99470.00;;;13.80
38114;BMP180;23926;53.222;6.354;2022-09-27T15:07:57;99469.00;;;13.80
38114;BMP180;23926;53.222;6.354;2022-09-27T15:10:27;99473.00;;;13.90
38114;BMP180;23926;53.222;6.354;2022-09-27T15:12:55;99479.00;;;13.90
38114;BMP180;23926;53.222;6.354;2022-09-27T15:15:32;99488.00;;;14.00
38114;BMP180;23926;53.222;6.354;2022-09-27T15:17:59;99487.00;;;14.00
38114;BMP180;23926;53.222;6.354;2022-09-27T15:22:57;99485.00;;;14.10
38114;BMP180;23926;53.222;6.354;2022-09-27T15:28:11;99482.00;;;14.20
38114;BMP180;23926;53.222;6.354;2022-09-27T15:30:41;99486.00;;;14.10
38114;BMP180;23926;53.222;6.354;2022-09-27T15:33:28;99483.00;;;14.00
38114;BMP180;23926;53.222;6.354;2022-09-27T15:35:58;99481.00;;;14.20
38114;BMP180;23926;53.222;6.354;2022-09-27T15:38:27;99477.00;;;14.20
38114;BMP180;23926;53.222;6.354;2022-09-27T15:43:26;99476.00;;;14.10
38114;BMP180;23926;53.222;6.354;2022-09-27T15:45:59;99475.00;;;14.20
38114;BMP180;23926;53.222;6.354;2022-09-27T15:48:28;99473.00;;;14.20
38114;BMP180;23926;53.222;6.354;2022-09-27T15:50:54;99474.00;;;14.20
38114;BMP180;23926;53.222;6.354;2022-09-27T15:53:46;99475.00;;;14.20
38114;BMP180;23926;53.222;6.354;2022-09-27T15:56:13;99475.00;;;14.20
38114;BMP180;23926;53.222;6.354;2022-09-27T15:58:39;99466.00;;;14.10
38114;BMP180;23926;53.222;6.354;2022-09-27T16:01:04;99479.00;;;14.10
38114;BMP180;23926;53.222;6.354;2022-09-27T16:03:30;99472.00;;;14.10
38114;BMP180;23926;53.222;6.354;2022-09-27T16:05:58;99475.00;;;14.10
38114;BMP180;23926;53.222;6.354;2022-09-27T16:08:24;99467.00;;;14.20
38114;BMP180;23926;53.222;6.354;2022-09-27T16:10:52;99468.00;;;14.30
38114;BMP180;23926;53.222;6.354;2022-09-27T16:13:19;99468.00;;;14.40
38114;BMP180;23926;53.222;6.354;2022-09-27T16:15:46;99471.00;;;14.50
38114;BMP180;23926;53.222;6.354;2022-09-27T16:18:11;99470.00;;;14.50
38114;BMP180;23926;53.222;6.354;2022-09-27T16:20:37;99465.00;;;14.50
38114;BMP180;23926;53.222;6.354;2022-09-27T16:23:03;99461.00;;;14.60
38114;BMP180;23926;53.222;6.354;2022-09-27T16:25:29;99458.00;;;14.60
38114;BMP180;23926;53.222;6.354;2022-09-27T16:27:58;99468.00;;;14.60
38114;BMP180;23926;53.222;6.354;2022-09-27T16:30:24;99462.00;;;14.60
38114;BMP180;23926;53.222;6.354;2022-09-27T16:32:50;99473.00;;;14.40
38114;BMP180;23926;53.222;6.354;2022-09-27T16:35:18;99490.00;;;14.30
38114;BMP180;23926;53.222;6.354;2022-09-27T16:37:44;99486.00;;;13.90
38114;BMP180;23926;53.222;6.354;2022-09-27T16:40:10;99491.00;;;13.20
38114;BMP180;23926;53.222;6.354;2022-09-27T16:42:37;99488.00;;;12.80
38114;BMP180;23926;53.222;6.354;2022-09-27T16:45:04;99493.00;;;12.20
38114;BMP180;23926;53.222;6.354;2022-09-27T16:47:30;99482.00;;;12.10
38114;BMP180;23926;53.222;6.354;2022-09-27T16:49:55;99490.00;;;11.90
38114;BMP180;23926;53.222;6.354;2022-09-27T16:52:39;99487.00;;;11.70
38114;BMP180;23926;53.222;6.354;2022-09-27T16:55:06;99486.00;;;11.70
38114;BMP180;23926;53.222;6.354;2022-09-27T16:57:33;99484.00;;;11.80
38114;BMP180;23926;53.222;6.354;2022-09-27T17:00:04;99487.00;;;11.80
38114;BMP180;23926;53.222;6.354;2022-09-27T17:02:29;99482.00;;;11.70